Time;durP1;ratioP1;P1;durP2;ratioP2;P2;SDS_P1;SDS_P2;PMS_P1;PMS_P2;Temp;Humidity;BMP_temperature;BMP_pressure;BME280_temperature;BME280_humidity;BME280_pressure;Samples;Min_cycle;Max_cycle;Signal;HPM_P1;HPM_P2
2021/06/16 00:02:43;;;;;;;11.63;8.50;;;21.40;99.90;;;;;;5076670;28;20398;-71
2021/06/16 00:05:47;;;;;;;10.38;8.10;;;21.40;99.90;;;;;;5083879;28;20086;-70
2021/06/16 00:08:52;;;;;;;9.90;8.57;;;21.40;99.90;;;;;;5074520;28;20044;-69
2021/06/16 00:11:56;;;;;;;11.45;8.75;;;21.40;99.90;;;;;;5080584;28;20051;-69
2021/06/16 00:15:01;;;;;;;12.02;8.23;;;21.30;99.90;;;;;;5069416;28;20040;-70
2021/06/16 00:18:05;;;;;;;14.65;9.52;;;21.20;99.90;;;;;;5069787;28;20110;-69
2021/06/16 00:21:13;;;;;;;21.80;10.15;;;21.20;99.90;;;;;;5088704;28;20461;-70
2021/06/16 00:24:19;;;;;;;10.98;8.85;;;21.20;99.90;;;;;;5074884;28;20519;-70
2021/06/16 00:27:23;;;;;;;12.18;8.88;;;21.20;99.90;;;;;;5077257;28;20505;-71
2021/06/16 00:30:27;;;;;;;12.88;9.05;;;21.20;99.90;;;;;;5069148;28;20044;-69
2021/06/16 00:33:32;;;;;;;12.18;8.60;;;21.10;99.90;;;;;;5068837;28;20035;-70
2021/06/16 00:36:36;;;;;;;11.73;7.80;;;21.00;99.90;;;;;;5078000;28;20062;-70
2021/06/16 00:39:40;;;;;;;11.60;8.98;;;21.00;99.90;;;;;;5083985;28;20055;-70
2021/06/16 00:42:44;;;;;;;9.38;8.23;;;21.00;99.90;;;;;;5073056;28;20043;-70
2021/06/16 00:45:49;;;;;;;12.00;8.73;;;21.00;99.90;;;;;;5076002;28;20411;-70
2021/06/16 00:48:54;;;;;;;12.35;8.82;;;21.00;99.90;;;;;;5089338;28;20686;-70
2021/06/16 00:51:58;;;;;;;12.48;8.80;;;21.00;99.90;;;;;;5072108;28;20048;-70
2021/06/16 00:55:05;;;;;;;14.73;8.63;;;21.00;99.90;;;;;;5077670;28;20395;-69
2021/06/16 00:58:11;;;;;;;10.95;8.20;;;21.00;99.90;;;;;;5089843;28;20035;-69
2021/06/16 01:01:18;;;;;;;11.38;7.97;;;21.00;99.90;;;;;;5068542;28;20067;-69
2021/06/16 01:04:24;;;;;;;12.98;7.88;;;20.90;99.90;;;;;;5076709;28;20058;-70
2021/06/16 01:07:32;;;;;;;11.68;8.43;;;20.90;99.90;;;;;;5088472;28;20061;-70
2021/06/16 01:10:41;;;;;;;9.95;8.27;;;20.90;99.90;;;;;;5089056;28;20482;-70
2021/06/16 01:13:51;;;;;;;11.90;8.25;;;20.90;99.90;;;;;;5072620;28;20043;-69
2021/06/16 01:17:00;;;;;;;18.80;11.55;;;20.80;99.90;;;;;;5079604;28;20036;-69
2021/06/16 01:20:20;;;;;;;14.35;11.18;;;20.30;99.90;;;;;;5088608;28;20106;-69
2021/06/16 01:23:54;;;;;;;13.25;9.07;;;20.30;99.90;;;;;;5084659;28;20051;-69
2021/06/16 01:27:00;;;;;;;15.35;11.05;;;20.30;99.90;;;;;;5073700;28;20047;-70
2021/06/16 01:30:07;;;;;;;13.73;10.60;;;20.20;99.90;;;;;;5071538;28;20395;-69
2021/06/16 01:33:15;;;;;;;12.52;10.50;;;20.20;99.90;;;;;;5071829;28;20051;-69
2021/06/16 01:36:24;;;;;;;19.52;10.48;;;20.20;99.90;;;;;;5085362;28;20047;-69
2021/06/16 01:39:35;;;;;;;14.88;11.75;;;20.20;99.90;;;;;;5076473;28;20043;-69
2021/06/16 01:42:40;;;;;;;12.57;10.38;;;20.20;99.90;;;;;;5072631;28;20502;-69
2021/06/16 01:45:46;;;;;;;19.20;10.63;;;20.20;99.90;;;;;;5072522;28;20051;-70
2021/06/16 01:48:52;;;;;;;16.35;11.05;;;20.20;99.90;;;;;;5071754;28;20048;-70
2021/06/16 01:51:58;;;;;;;11.35;10.15;;;20.10;99.90;;;;;;5071980;28;20044;-70
2021/06/16 01:55:04;;;;;;;12.55;10.27;;;20.10;99.90;;;;;;5091479;28;20047;-69
2021/06/16 01:58:10;;;;;;;16.17;11.57;;;20.10;99.90;;;;;;5091891;28;20047;-69
2021/06/16 02:01:18;;;;;;;16.73;11.80;;;19.90;99.90;;;;;;5090375;28;20059;-70
2021/06/16 02:04:23;;;;;;;19.50;13.02;;;19.50;99.90;;;;;;5071657;28;20051;-69
2021/06/16 02:07:30;;;;;;;14.20;12.70;;;19.40;99.90;;;;;;5095811;28;20395;-70
2021/06/16 02:10:37;;;;;;;20.90;15.95;;;19.50;99.90;;;;;;5086778;28;20043;-69
2021/06/16 02:13:47;;;;;;;21.05;16.98;;;19.50;99.90;;;;;;5092139;28;20067;-70
2021/06/16 02:17:01;;;;;;;25.63;17.58;;;19.50;99.90;;;;;;5086543;28;20051;-69
2021/06/16 02:20:07;;;;;;;24.23;19.38;;;19.50;99.90;;;;;;5085829;28;20063;-69
2021/06/16 02:23:12;;;;;;;24.17;18.65;;;19.50;99.90;;;;;;5077009;28;20047;-69
2021/06/16 02:26:18;;;;;;;22.02;16.02;;;19.50;99.90;;;;;;5072714;28;20044;-69
2021/06/16 02:29:29;;;;;;;21.83;17.05;;;19.50;99.90;;;;;;5075006;28;20051;-70
2021/06/16 02:32:35;;;;;;;20.10;16.83;;;19.50;99.90;;;;;;5072532;28;20226;-69
2021/06/16 02:35:40;;;;;;;21.33;17.17;;;19.60;99.90;;;;;;5089583;28;20047;-70
2021/06/16 02:38:45;;;;;;;23.77;18.08;;;19.50;99.90;;;;;;5085487;28;20043;-69
2021/06/16 02:41:49;;;;;;;22.50;18.63;;;19.50;99.90;;;;;;5090614;28;20039;-70
2021/06/16 02:44:55;;;;;;;20.67;17.45;;;19.40;99.90;;;;;;5091456;28;20043;-70
2021/06/16 02:48:00;;;;;;;26.65;18.88;;;19.40;99.90;;;;;;5090167;28;20391;-69
2021/06/16 02:51:06;;;;;;;24.45;18.60;;;19.40;99.90;;;;;;5085572;28;20035;-69
2021/06/16 02:54:17;;;;;;;24.85;19.85;;;19.40;99.90;;;;;;5090782;28;20046;-70
2021/06/16 02:57:25;;;;;;;29.25;19.33;;;19.30;99.90;;;;;;5090385;28;20047;-70
2021/06/16 03:00:30;;;;;;;27.13;19.75;;;19.30;99.90;;;;;;5074976;28;20395;-69
2021/06/16 03:03:35;;;;;;;26.23;19.98;;;19.30;99.90;;;;;;5090598;28;20103;-69
2021/06/16 03:06:42;;;;;;;22.60;18.80;;;19.40;99.90;;;;;;5089031;28;20051;-70
2021/06/16 03:09:48;;;;;;;21.98;18.65;;;19.40;99.90;;;;;;5077066;28;20040;-69
2021/06/16 03:12:55;;;;;;;23.42;16.65;;;19.40;99.90;;;;;;5071376;28;20392;-69
2021/06/16 03:16:01;;;;;;;20.85;16.70;;;19.40;99.90;;;;;;5078267;28;20036;-70
2021/06/16 03:19:06;;;;;;;20.90;15.05;;;19.30;99.90;;;;;;5088641;28;20071;-70
2021/06/16 03:22:11;;;;;;;21.23;14.85;;;19.30;99.90;;;;;;5088028;28;20035;-69
2021/06/16 03:25:16;;;;;;;16.52;14.10;;;19.30;99.90;;;;;;5069935;28;20056;-69
2021/06/16 03:28:23;;;;;;;28.40;16.88;;;19.30;99.90;;;;;;5083169;28;20031;-69
2021/06/16 03:31:28;;;;;;;21.33;14.93;;;19.20;99.90;;;;;;5088441;28;20391;-69
2021/06/16 03:34:32;;;;;;;19.00;15.55;;;19.20;99.90;;;;;;5089011;28;20051;-69
2021/06/16 03:37:37;;;;;;;17.63;15.27;;;19.20;99.90;;;;;;5069787;28;20043;-69
2021/06/16 03:40:42;;;;;;;22.20;15.25;;;19.20;99.90;;;;;;5069589;28;20047;-69
2021/06/16 03:43:48;;;;;;;21.85;15.02;;;19.10;99.90;;;;;;5069730;28;20411;-69
2021/06/16 03:46:53;;;;;;;18.73;13.02;;;19.10;99.90;;;;;;5069700;28;20513;-69
2021/06/16 03:49:59;;;;;;;18.05;14.07;;;19.20;99.90;;;;;;5073751;28;20067;-69
2021/06/16 03:53:09;;;;;;;19.70;12.65;;;19.20;99.90;;;;;;5079748;28;20629;-69
2021/06/16 03:56:14;;;;;;;16.38;12.43;;;19.20;99.90;;;;;;5069606;28;20043;-69
2021/06/16 03:59:20;;;;;;;14.00;11.85;;;19.30;99.90;;;;;;5084243;28;20043;-69
2021/06/16 04:02:24;;;;;;;13.38;11.13;;;19.30;99.90;;;;;;5088910;28;20046;-69
2021/06/16 04:05:29;;;;;;;20.95;12.40;;;19.20;99.90;;;;;;5089580;28;20043;-69
2021/06/16 04:08:36;;;;;;;17.42;12.18;;;19.20;99.90;;;;;;5083201;28;20055;-69
2021/06/16 04:11:43;;;;;;;16.10;11.50;;;19.30;99.90;;;;;;5084130;28;20380;-69
2021/06/16 04:14:48;;;;;;;21.33;12.30;;;19.30;99.90;;;;;;5089530;28;20051;-69
2021/06/16 04:17:53;;;;;;;16.85;11.93;;;19.30;99.90;;;;;;5088981;28;20047;-69
2021/06/16 04:20:58;;;;;;;15.82;12.45;;;19.40;99.90;;;;;;5083454;28;20549;-69
2021/06/16 04:24:03;;;;;;;13.45;11.95;;;19.50;99.90;;;;;;5068941;28;20040;-69
2021/06/16 04:27:08;;;;;;;16.75;11.80;;;19.50;99.90;;;;;;5086808;28;20038;-69
2021/06/16 04:30:14;;;;;;;16.90;11.80;;;20.00;99.90;;;;;;5081918;28;20051;-69
2021/06/16 04:33:18;;;;;;;17.13;11.90;;;20.70;99.90;;;;;;5069261;28;20043;-69
2021/06/16 04:36:22;;;;;;;13.43;11.32;;;21.60;99.90;;;;;;5068718;28;20047;-70
2021/06/16 04:39:26;;;;;;;13.80;10.88;;;22.30;99.90;;;;;;5073679;28;20044;-70
2021/06/16 04:42:30;;;;;;;16.08;11.35;;;22.60;99.90;;;;;;5069462;28;20043;-70
2021/06/16 04:45:35;;;;;;;15.30;11.40;;;22.70;99.90;;;;;;5067697;28;20044;-70
2021/06/16 04:48:42;;;;;;;15.88;11.40;;;23.10;99.90;;;;;;5078537;28;20051;-70
2021/06/16 04:51:48;;;;;;;15.65;11.00;;;23.80;99.90;;;;;;5087455;28;20047;-69
2021/06/16 04:54:52;;;;;;;12.95;9.77;;;24.10;99.90;;;;;;5068565;28;20126;-69
2021/06/16 04:57:56;;;;;;;13.02;9.55;;;24.00;99.90;;;;;;5082614;28;20058;-69
2021/06/16 05:01:01;;;;;;;10.63;9.23;;;24.40;99.90;;;;;;5087353;28;20412;-69
2021/06/16 05:04:06;;;;;;;14.05;9.13;;;24.90;99.90;;;;;;5088196;28;20055;-70
2021/06/16 05:07:10;;;;;;;13.18;8.65;;;25.40;99.90;;;;;;5086831;28;20050;-70
2021/06/16 05:10:14;;;;;;;12.52;7.93;;;26.00;99.90;;;;;;5086505;28;20039;-70
2021/06/16 05:13:23;;;;;;;11.80;7.88;;;26.00;99.90;;;;;;5088733;28;20502;-70
2021/06/16 05:16:27;;;;;;;15.18;8.68;;;25.80;99.90;;;;;;5080894;28;20110;-68
2021/06/16 05:19:33;;;;;;;12.23;9.00;;;26.20;99.90;;;;;;5086210;28;20502;-70
2021/06/16 05:22:37;;;;;;;14.82;8.75;;;25.60;99.90;;;;;;5089389;28;20035;-70
2021/06/16 05:25:47;;;;;;;17.70;9.32;;;25.70;99.90;;;;;;5090122;28;20054;-70
2021/06/16 05:28:52;;;;;;;10.82;7.93;;;25.90;99.90;;;;;;5084880;28;20382;-70
2021/06/16 05:31:56;;;;;;;13.40;8.13;;;25.60;99.90;;;;;;5090365;28;20134;-70
2021/06/16 05:35:00;;;;;;;10.38;8.65;;;25.60;99.90;;;;;;5088945;28;20110;-69
2021/06/16 05:38:04;;;;;;;11.38;8.27;;;25.70;99.90;;;;;;5082924;28;20047;-69
2021/06/16 05:41:08;;;;;;;9.52;7.85;;;26.50;99.90;;;;;;5086749;28;20391;-70
2021/06/16 05:44:13;;;;;;;10.50;6.97;;;28.00;99.90;;;;;;5086198;28;20034;-70
2021/06/16 05:47:17;;;;;;;12.00;6.97;;;28.40;99.90;;;;;;5090185;28;20051;-69
2021/06/16 05:50:21;;;;;;;10.35;6.90;;;27.90;99.90;;;;;;5073711;28;20047;-69
2021/06/16 05:53:26;;;;;;;9.60;7.18;;;27.60;99.90;;;;;;5092183;28;20063;-69
2021/06/16 05:56:30;;;;;;;8.18;6.85;;;27.10;99.90;;;;;;5091250;28;20063;-69
2021/06/16 05:59:34;;;;;;;11.82;7.75;;;27.20;99.90;;;;;;5086949;28;20043;-69
2021/06/16 06:02:39;;;;;;;9.85;7.30;;;26.30;99.90;;;;;;5087737;28;20047;-69
2021/06/16 06:05:43;;;;;;;10.75;8.30;;;26.00;99.90;;;;;;5075977;28;20063;-69
2021/06/16 06:08:47;;;;;;;9.18;6.95;;;25.70;99.90;;;;;;5075463;28;20497;-70
2021/06/16 06:11:50;;;;;;;11.90;7.53;;;26.60;99.90;;;;;;5071082;28;20035;-69
2021/06/16 06:14:55;;;;;;;9.65;7.03;;;27.60;99.90;;;;;;5086264;28;20514;-69
2021/06/16 06:18:00;;;;;;;9.98;6.85;;;28.30;99.90;;;;;;5085953;28;20039;-70
2021/06/16 06:21:04;;;;;;;13.90;7.22;;;29.40;99.90;;;;;;5089640;28;20449;-70
2021/06/16 06:24:09;;;;;;;8.93;6.80;;;30.40;98.80;;;;;;5084663;28;20042;-70
2021/06/16 06:27:13;;;;;;;10.23;7.00;;;30.90;97.50;;;;;;5083238;28;20051;-69
2021/06/16 06:30:17;;;;;;;10.48;7.55;;;31.20;96.90;;;;;;5086662;28;20063;-69
2021/06/16 06:33:21;;;;;;;17.10;8.35;;;31.30;96.30;;;;;;5088899;28;20371;-70
2021/06/16 06:36:27;;;;;;;14.30;7.50;;;31.20;96.20;;;;;;5084454;28;20051;-70
2021/06/16 06:39:32;;;;;;;15.77;7.63;;;31.00;96.10;;;;;;5089382;28;20043;-69
2021/06/16 06:42:36;;;;;;;9.45;7.63;;;30.00;96.30;;;;;;5088196;28;20035;-69
2021/06/16 06:45:41;;;;;;;9.55;6.65;;;28.60;98.30;;;;;;5085130;28;20051;-69
2021/06/16 06:48:46;;;;;;;8.95;6.68;;;28.80;98.50;;;;;;5084144;28;20048;-69
2021/06/16 06:51:50;;;;;;;10.50;6.18;;;29.70;97.90;;;;;;5087366;28;20043;-70
2021/06/16 06:54:57;;;;;;;8.35;6.18;;;30.20;97.50;;;;;;5079522;28;20040;-69
2021/06/16 06:58:01;;;;;;;9.40;5.80;;;29.70;97.80;;;;;;5087309;28;20050;-70
2021/06/16 07:01:06;;;;;;;7.85;6.20;;;30.30;97.10;;;;;;5090457;28;20035;-70
2021/06/16 07:04:09;;;;;;;8.65;5.70;;;30.50;96.60;;;;;;5091360;28;20035;-69
2021/06/16 07:07:13;;;;;;;7.97;5.47;;;31.00;96.20;;;;;;5083262;28;20047;-70
2021/06/16 07:10:18;;;;;;;8.05;5.90;;;31.80;95.80;;;;;;5088831;28;20043;-70
2021/06/16 07:13:22;;;;;;;8.88;5.50;;;30.80;95.80;;;;;;5087945;28;20055;-69
2021/06/16 07:16:26;;;;;;;10.18;5.00;;;31.80;95.60;;;;;;5082146;28;20042;-70
2021/06/16 07:19:31;;;;;;;10.80;5.57;;;31.50;95.30;;;;;;5089922;28;20039;-69
2021/06/16 07:22:36;;;;;;;10.15;5.75;;;31.20;95.40;;;;;;5080071;28;20419;-68
2021/06/16 07:25:40;;;;;;;6.95;5.53;;;30.00;95.90;;;;;;5079127;28;20047;-69
2021/06/16 07:28:44;;;;;;;10.18;5.07;;;31.20;95.90;;;;;;5075163;28;20039;-68
2021/06/16 07:31:49;;;;;;;8.02;5.47;;;32.20;94.90;;;;;;5078661;28;20031;-69
2021/06/16 07:34:55;;;;;;;11.18;5.32;;;32.20;94.40;;;;;;5075731;28;20386;-68
2021/06/16 07:37:59;;;;;;;8.77;5.57;;;33.00;94.10;;;;;;5082117;28;20047;-68
2021/06/16 07:41:02;;;;;;;8.27;5.85;;;29.90;95.80;;;;;;5091415;28;20533;-68
2021/06/16 07:44:06;;;;;;;7.18;5.50;;;28.70;96.90;;;;;;5090899;28;20324;-69
2021/06/16 07:47:11;;;;;;;9.75;5.03;;;30.30;96.80;;;;;;5082066;28;20375;-69
2021/06/16 07:50:15;;;;;;;9.57;5.35;;;32.00;95.60;;;;;;5086534;28;20046;-69
2021/06/16 07:53:22;;;;;;;8.10;5.20;;;33.70;93.80;;;;;;5084235;28;20039;-70
2021/06/16 07:56:26;;;;;;;10.98;4.80;;;33.50;93.00;;;;;;5089889;28;20047;-69
2021/06/16 07:59:30;;;;;;;7.85;5.50;;;32.70;93.40;;;;;;5079559;28;20039;-69
2021/06/16 08:02:38;;;;;;;6.60;5.13;;;32.10;93.00;;;;;;5071344;28;20052;-70
2021/06/16 08:05:43;;;;;;;6.55;4.82;;;33.30;93.30;;;;;;5069752;28;20495;-71
2021/06/16 08:08:47;;;;;;;19.27;6.07;;;33.60;92.90;;;;;;5080481;28;20048;-69
2021/06/16 08:11:51;;;;;;;8.65;5.25;;;36.00;91.10;;;;;;5070238;28;20051;-71
2021/06/16 08:14:58;;;;;;;7.47;4.88;;;37.60;88.60;;;;;;5069434;28;20502;-70
2021/06/16 08:18:02;;;;;;;6.93;4.32;;;37.30;87.20;;;;;;5069584;28;20051;-71
2021/06/16 08:21:07;;;;;;;8.07;4.30;;;38.40;85.20;;;;;;5069844;28;20040;-69
2021/06/16 08:24:10;;;;;;;13.10;4.22;;;37.80;83.00;;;;;;5069737;28;20047;-71
2021/06/16 08:27:14;;;;;;;7.78;4.28;;;38.80;83.00;;;;;;5071575;28;20055;-70
2021/06/16 08:30:20;;;;;;;11.35;4.40;;;39.70;80.10;;;;;;5089200;28;20126;-70
2021/06/16 08:33:24;;;;;;;5.85;3.92;;;40.00;79.10;;;;;;5069527;28;20081;-70
2021/06/16 08:36:28;;;;;;;6.30;3.95;;;40.70;77.30;;;;;;5076614;28;20499;-70
2021/06/16 08:39:33;;;;;;;5.22;3.95;;;40.90;75.70;;;;;;5069645;28;20039;-70
2021/06/16 08:42:37;;;;;;;4.75;4.18;;;40.50;74.90;;;;;;5076730;28;20049;-71
2021/06/16 08:45:43;;;;;;;8.25;4.47;;;41.00;74.70;;;;;;5076292;28;20043;-71
2021/06/16 08:48:47;;;;;;;5.90;3.95;;;41.60;73.50;;;;;;5076098;28;20668;-70
2021/06/16 08:51:52;;;;;;;6.47;4.07;;;42.00;73.10;;;;;;5093573;28;20039;-69
2021/06/16 08:54:56;;;;;;;5.55;4.25;;;42.70;71.40;;;;;;5087528;28;20051;-70
2021/06/16 08:58:00;;;;;;;6.90;4.03;;;42.70;70.30;;;;;;5093324;28;20115;-69
2021/06/16 09:01:07;;;;;;;6.47;3.60;;;42.00;69.60;;;;;;5087362;28;20395;-69
2021/06/16 09:04:31;;;;;;;6.00;4.00;;;38.40;72.10;;;;;;5093019;28;20383;-69
2021/06/16 09:07:38;;;;;;;4.50;4.00;;;38.40;72.90;;;;;;5096383;28;20038;-68
2021/06/16 09:10:51;;;;;;;7.53;4.00;;;40.00;73.00;;;;;;5076204;28;20388;-68
2021/06/16 09:14:13;;;;;;;5.43;4.50;;;38.90;72.30;;;;;;5077251;28;20051;-68
2021/06/16 09:17:23;;;;;;;8.00;4.30;;;35.30;76.80;;;;;;5089987;28;20050;-68
2021/06/16 09:20:29;;;;;;;5.68;4.50;;;35.20;76.40;;;;;;5090271;28;20044;-69
2021/06/16 09:23:33;;;;;;;4.50;4.10;;;38.90;74.50;;;;;;5095871;28;20047;-69
2021/06/16 09:26:38;;;;;;;5.75;3.90;;;39.60;71.60;;;;;;5089715;28;20047;-69
2021/06/16 09:29:44;;;;;;;8.27;3.55;;;41.90;70.70;;;;;;5093074;28;20047;-68
2021/06/16 09:32:53;;;;;;;6.18;3.58;;;43.20;68.40;;;;;;5087566;28;20043;-69
2021/06/16 09:35:58;;;;;;;4.30;3.55;;;41.80;68.90;;;;;;5088596;28;20149;-68
2021/06/16 09:39:09;;;;;;;6.55;3.88;;;43.20;67.60;;;;;;5095028;28;20058;-69
2021/06/16 09:42:26;;;;;;;7.40;3.65;;;42.40;67.90;;;;;;5092945;28;20039;-69
2021/06/16 09:45:30;;;;;;;7.40;3.30;;;43.90;66.30;;;;;;5092383;28;20047;-69
2021/06/16 09:48:40;;;;;;;6.43;3.47;;;42.40;66.00;;;;;;5086019;28;20047;-68
2021/06/16 09:51:44;;;;;;;4.55;3.70;;;40.60;67.30;;;;;;5084204;28;20062;-68
2021/06/16 09:54:49;;;;;;;5.65;3.35;;;38.10;70.00;;;;;;5088790;28;20426;-69
2021/06/16 09:58:02;;;;;;;7.15;3.78;;;40.40;68.40;;;;;;5085582;28;20055;-68
2021/06/16 10:01:07;;;;;;;5.45;3.65;;;41.10;67.30;;;;;;5090053;28;20039;-68
2021/06/16 10:04:11;;;;;;;8.30;3.53;;;39.20;67.90;;;;;;5090734;28;20532;-68
2021/06/16 10:07:27;;;;;;;6.13;4.13;;;38.70;70.20;;;;;;5082871;28;20403;-70
2021/06/16 10:10:31;;;;;;;7.15;3.65;;;38.10;69.30;;;;;;5076397;28;20206;-69
2021/06/16 10:13:38;;;;;;;9.05;3.83;;;38.90;69.10;;;;;;5072227;28;20407;-69
2021/06/16 10:16:44;;;;;;;10.45;3.63;;;38.10;70.50;;;;;;5072785;28;20059;-69
2021/06/16 10:19:49;;;;;;;4.82;3.55;;;39.40;67.70;;;;;;5071234;28;20325;-69
2021/06/16 10:22:54;;;;;;;5.72;3.47;;;42.10;67.80;;;;;;5093039;28;20704;-69
2021/06/16 10:26:05;;;;;;;8.13;3.53;;;42.40;63.60;;;;;;5086438;28;20047;-69
2021/06/16 10:29:12;;;;;;;5.63;4.03;;;41.40;63.60;;;;;;5075918;28;20044;-68
2021/06/16 10:32:18;;;;;;;5.10;3.63;;;39.70;66.20;;;;;;5074853;28;20051;-68
2021/06/16 10:35:24;;;;;;;4.82;3.70;;;40.50;66.60;;;;;;5071153;28;20123;-68
2021/06/16 10:38:29;;;;;;;7.80;3.80;;;39.10;67.20;;;;;;5075636;28;20060;-68
2021/06/16 10:41:47;;;;;;;4.63;3.80;;;37.70;68.90;;;;;;5071063;28;20490;-67
2021/06/16 10:45:19;;;;;;;7.90;3.50;;;40.30;66.70;;;;;;5078328;28;20051;-69
2021/06/16 10:48:44;;;;;;;5.95;3.83;;;41.40;65.90;;;;;;5086235;28;20063;-69
2021/06/16 10:51:59;;;;;;;5.65;3.20;;;42.30;65.50;;;;;;5069919;28;20387;-69
2021/06/16 10:55:05;;;;;;;4.75;3.30;;;43.00;62.90;;;;;;5077385;28;20047;-69
2021/06/16 10:58:16;;;;;;;3.45;2.95;;;43.60;63.20;;;;;;5076840;28;20051;-69
2021/06/16 11:01:22;;;;;;;8.93;3.40;;;43.40;63.30;;;;;;5077580;28;20051;-69
2021/06/16 11:04:30;;;;;;;4.90;3.10;;;40.50;61.90;;;;;;5080185;28;20047;-68
2021/06/16 11:07:35;;;;;;;9.00;3.75;;;38.80;65.10;;;;;;5089758;28;20035;-68
2021/06/16 11:10:52;;;;;;;6.43;3.67;;;37.20;64.10;;;;;;5074529;28;20051;-68
2021/06/16 11:13:58;;;;;;;5.40;3.67;;;37.50;64.50;;;;;;5083908;28;20051;-69
2021/06/16 11:17:10;;;;;;;7.22;3.70;;;38.00;64.10;;;;;;5087257;28;20493;-69
2021/06/16 11:20:26;;;;;;;5.38;3.70;;;38.50;65.90;;;;;;5088509;28;20039;-68
2021/06/16 11:23:55;;;;;;;7.88;3.97;;;38.80;65.00;;;;;;5084026;28;20039;-68
2021/06/16 11:27:07;;;;;;;4.35;3.83;;;38.90;65.80;;;;;;5081434;28;20055;-68
2021/06/16 11:30:14;;;;;;;5.95;3.83;;;37.80;67.90;;;;;;5087589;28;20067;-69
2021/06/16 11:33:22;;;;;;;15.45;4.68;;;38.20;68.20;;;;;;5085506;28;20502;-68
2021/06/16 11:36:38;;;;;;;6.30;4.30;;;38.40;68.50;;;;;;5086607;28;20039;-69
2021/06/16 11:39:42;;;;;;;4.85;4.07;;;38.70;68.20;;;;;;5069812;28;20040;-68
2021/06/16 11:42:47;;;;;;;7.00;3.92;;;38.10;68.30;;;;;;5075852;28;20466;-68
2021/06/16 11:45:51;;;;;;;5.60;3.90;;;38.00;68.20;;;;;;5087551;28;20047;-68
2021/06/16 11:49:23;;;;;;;4.10;3.70;;;38.40;67.80;;;;;;5087360;28;21509;-69
2021/06/16 11:52:27;;;;;;;4.53;4.00;;;38.80;66.80;;;;;;5083765;28;20059;-69
2021/06/16 11:55:48;;;;;;;9.10;4.15;;;39.10;66.90;;;;;;5088744;28;20050;-69
2021/06/16 11:58:53;;;;;;;7.80;4.03;;;39.60;67.50;;;;;;5085947;28;20051;-70
2021/06/16 12:02:08;;;;;;;6.80;3.83;;;39.70;65.30;;;;;;5086784;28;20043;-69
2021/06/16 12:05:16;;;;;;;8.73;3.95;;;39.50;66.80;;;;;;5086561;28;20035;-69
2021/06/16 12:08:23;;;;;;;6.72;4.53;;;39.20;66.00;;;;;;5084335;28;20490;-69
2021/06/16 12:11:31;;;;;;;5.53;4.03;;;38.90;65.60;;;;;;5070442;28;20372;-69
2021/06/16 12:14:36;;;;;;;7.72;3.88;;;38.60;66.30;;;;;;5070699;28;20047;-69
2021/06/16 12:17:58;;;;;;;7.75;4.45;;;38.60;65.80;;;;;;5071503;28;20051;-69
2021/06/16 12:21:03;;;;;;;5.10;3.88;;;38.30;66.00;;;;;;5072741;28;20040;-69
2021/06/16 12:24:20;;;;;;;7.60;4.35;;;38.10;66.40;;;;;;5085705;28;20047;-69
2021/06/16 12:27:32;;;;;;;6.47;4.03;;;37.60;65.10;;;;;;5084713;28;20039;-69
2021/06/16 12:30:37;;;;;;;7.35;4.55;;;37.40;67.00;;;;;;5088193;28;20122;-69
2021/06/16 12:34:01;;;;;;;5.68;4.20;;;37.10;68.30;;;;;;5083874;28;20039;-69
2021/06/16 12:37:10;;;;;;;5.03;4.05;;;37.00;68.40;;;;;;5087621;28;20043;-69
2021/06/16 12:40:15;;;;;;;6.32;4.03;;;37.00;67.90;;;;;;5084057;28;20043;-69
2021/06/16 12:43:24;;;;;;;5.22;4.22;;;36.60;67.70;;;;;;5081780;28;20054;-69
2021/06/16 12:46:47;;;;;;;5.85;4.15;;;36.70;68.20;;;;;;5084325;28;20165;-69
2021/06/16 12:49:53;;;;;;;7.75;4.65;;;36.50;70.30;;;;;;5083223;28;20051;-68
2021/06/16 12:52:58;;;;;;;6.30;4.25;;;35.20;71.10;;;;;;5079911;28;20047;-69
2021/06/16 12:56:05;;;;;;;5.07;3.90;;;34.60;71.90;;;;;;5085995;28;20497;-68
2021/06/16 12:59:10;;;;;;;5.28;4.22;;;35.30;71.30;;;;;;5084362;28;20046;-70
2021/06/16 13:02:32;;;;;;;6.53;3.95;;;35.80;69.50;;;;;;5089000;28;20047;-69
2021/06/16 13:05:36;;;;;;;7.30;4.00;;;36.20;68.70;;;;;;5080670;28;20051;-69
2021/06/16 13:08:45;;;;;;;5.80;3.97;;;36.60;67.60;;;;;;5077374;28;20039;-70
2021/06/16 13:12:03;;;;;;;4.30;3.90;;;36.70;67.90;;;;;;5087495;28;20047;-69
2021/06/16 13:15:09;;;;;;;6.50;4.10;;;36.80;67.10;;;;;;5081033;28;20054;-68
2021/06/16 13:18:16;;;;;;;5.95;4.10;;;36.80;68.50;;;;;;5087099;28;20043;-69
2021/06/16 13:21:21;;;;;;;5.43;4.35;;;36.70;68.40;;;;;;5086304;28;20501;-69
2021/06/16 13:24:26;;;;;;;6.45;4.80;;;36.20;69.30;;;;;;5083071;28;20048;-69
2021/06/16 13:27:44;;;;;;;6.75;4.32;;;35.50;72.00;;;;;;5078492;28;20055;-68
2021/06/16 13:30:49;;;;;;;6.18;4.00;;;34.80;71.60;;;;;;5082899;28;20047;-68
2021/06/16 13:33:54;;;;;;;5.20;4.18;;;35.50;70.20;;;;;;5068086;28;20042;-68
2021/06/16 13:36:59;;;;;;;5.97;4.60;;;36.00;69.20;;;;;;5083565;28;20048;-69
2021/06/16 13:40:04;;;;;;;6.05;4.20;;;36.30;69.60;;;;;;5088571;28;20043;-69
2021/06/16 13:43:09;;;;;;;9.98;4.72;;;36.20;69.10;;;;;;5078248;28;20047;-69
2021/06/16 13:46:14;;;;;;;8.57;4.80;;;35.80;69.10;;;;;;5082197;28;20059;-69
2021/06/16 13:49:18;;;;;;;6.22;4.57;;;35.50;69.30;;;;;;5091554;28;20048;-69
2021/06/16 13:52:23;;;;;;;13.27;5.03;;;35.60;69.90;;;;;;5071772;28;20407;-68
2021/06/16 13:55:27;;;;;;;5.35;4.40;;;35.60;71.20;;;;;;5083500;28;20387;-68
2021/06/16 13:58:31;;;;;;;7.22;4.50;;;35.40;70.40;;;;;;5078205;28;20051;-69
2021/06/16 14:01:35;;;;;;;6.78;5.05;;;35.10;71.30;;;;;;5091270;28;20047;-69
2021/06/16 14:04:40;;;;;;;5.93;4.60;;;35.00;71.00;;;;;;5071833;28;20044;-68
2021/06/16 14:07:44;;;;;;;10.32;5.00;;;34.80;72.20;;;;;;5083124;28;20063;-68
2021/06/16 14:10:49;;;;;;;9.32;5.40;;;34.50;71.50;;;;;;5072247;28;20044;-68
2021/06/16 14:13:54;;;;;;;6.13;5.43;;;34.30;72.00;;;;;;5088863;28;20071;-69
2021/06/16 14:16:59;;;;;;;6.05;4.22;;;34.20;74.20;;;;;;5085924;28;20056;-68
2021/06/16 14:20:08;;;;;;;10.02;5.20;;;34.40;72.20;;;;;;5091029;28;20059;-68
2021/06/16 14:23:14;;;;;;;9.15;5.00;;;34.60;73.00;;;;;;5085025;28;20502;-68
2021/06/16 14:26:19;;;;;;;8.82;5.20;;;34.30;72.50;;;;;;5083680;28;20388;-68
2021/06/16 14:29:23;;;;;;;6.43;5.10;;;34.00;72.60;;;;;;5090170;28;20054;-68
2021/06/16 14:32:27;;;;;;;6.45;4.88;;;33.80;75.30;;;;;;5071825;28;20048;-68
2021/06/16 14:35:34;;;;;;;8.07;5.72;;;33.50;73.80;;;;;;5085487;28;20043;-68
2021/06/16 14:38:38;;;;;;;10.57;5.30;;;33.30;74.20;;;;;;5088941;28;21501;-69
2021/06/16 14:41:42;;;;;;;9.25;5.25;;;32.80;76.70;;;;;;5071126;28;20048;-68
2021/06/16 14:44:46;;;;;;;9.30;5.70;;;32.80;77.20;;;;;;5070985;28;20044;-68
2021/06/16 14:47:51;;;;;;;6.75;5.70;;;32.90;78.30;;;;;;5072209;28;20306;-69
2021/06/16 14:50:55;;;;;;;7.13;5.38;;;32.90;76.10;;;;;;5070452;28;20064;-68
2021/06/16 14:54:01;;;;;;;9.30;5.88;;;33.10;77.80;;;;;;5077564;28;20047;-68
2021/06/16 14:57:05;;;;;;;10.20;5.47;;;32.50;79.20;;;;;;5089489;28;20051;-68
2021/06/16 15:00:09;;;;;;;11.00;5.82;;;32.00;79.10;;;;;;5070482;28;20043;-68
2021/06/16 15:03:13;;;;;;;8.02;6.03;;;32.10;79.30;;;;;;5082604;28;20043;-68
2021/06/16 15:06:17;;;;;;;7.30;4.95;;;32.10;80.50;;;;;;5074445;28;20059;-68
2021/06/16 15:09:25;;;;;;;7.93;5.53;;;32.30;80.20;;;;;;5090683;28;20066;-69
2021/06/16 15:12:29;;;;;;;7.95;5.10;;;32.30;78.80;;;;;;5089357;28;20059;-69
2021/06/16 15:15:34;;;;;;;8.57;4.88;;;32.60;77.70;;;;;;5083410;28;20061;-68
2021/06/16 15:18:38;;;;;;;7.47;5.15;;;32.80;78.10;;;;;;5090265;28;20047;-68
2021/06/16 15:21:42;;;;;;;8.00;5.43;;;32.90;76.90;;;;;;5087337;28;20051;-69
2021/06/16 15:24:53;;;;;;;5.68;4.72;;;32.90;77.40;;;;;;5084925;28;20039;-68
2021/06/16 15:28:01;;;;;;;12.45;6.03;;;32.90;76.70;;;;;;5089241;28;20501;-68
2021/06/16 15:31:10;;;;;;;6.47;5.72;;;32.70;79.70;;;;;;5086604;28;20046;-68
2021/06/16 15:34:16;;;;;;;8.88;5.93;;;32.50;80.40;;;;;;5071278;28;20046;-68
2021/06/16 15:37:22;;;;;;;10.25;6.35;;;32.10;81.80;;;;;;5072734;28;20055;-68
2021/06/16 15:40:25;;;;;;;6.90;6.22;;;31.50;84.50;;;;;;5072855;28;20569;-67
2021/06/16 15:43:30;;;;;;;10.02;6.45;;;31.70;84.50;;;;;;5069797;28;20955;-68
2021/06/16 15:46:34;;;;;;;18.75;6.40;;;31.70;84.40;;;;;;5084005;28;20055;-68
2021/06/16 15:49:39;;;;;;;29.33;6.75;;;31.10;83.60;;;;;;5079723;28;20054;-68
2021/06/16 15:52:44;;;;;;;9.77;6.30;;;30.80;86.60;;;;;;5068200;28;20052;-68
2021/06/16 15:55:49;;;;;;;13.82;6.18;;;31.00;85.50;;;;;;5072854;28;20039;-68
2021/06/16 15:58:53;;;;;;;21.63;6.40;;;31.20;86.00;;;;;;5071116;28;20505;-68
2021/06/16 16:01:57;;;;;;;10.45;6.32;;;31.30;86.10;;;;;;5074001;28;20094;-68
2021/06/16 16:05:02;;;;;;;7.65;6.50;;;31.10;85.70;;;;;;5074141;28;20043;-68